sensor_id;sensor_type;location;lat;lon;timestamp;P1;durP1;ratioP1;P2;durP2;ratioP2
70818;SDS011;58439;51.046;13.692;2023-04-03T00:01:35;6.22;;;1.45;;
70818;SDS011;58439;51.046;13.692;2023-04-03T00:04:05;7.65;;;1.85;;
70818;SDS011;58439;51.046;13.692;2023-04-03T00:06:33;6.65;;;1.65;;
70818;SDS011;58439;51.046;13.692;2023-04-03T00:09:02;5.82;;;1.58;;
70818;SDS011;58439;51.046;13.692;2023-04-03T00:11:29;5.85;;;1.40;;
70818;SDS011;58439;51.046;13.692;2023-04-03T00:13:56;7.28;;;1.90;;
70818;SDS011;58439;51.046;13.692;2023-04-03T00:16:24;8.18;;;2.00;;
70818;SDS011;58439;51.046;13.692;2023-04-03T00:18:51;6.50;;;1.85;;
70818;SDS011;58439;51.046;13.692;2023-04-03T00:21:18;6.55;;;1.55;;
70818;SDS011;58439;51.046;13.692;2023-04-03T00:23:45;6.78;;;1.70;;
70818;SDS011;58439;51.046;13.692;2023-04-03T00:26:12;6.07;;;1.63;;
70818;SDS011;58439;51.046;13.692;2023-04-03T00:28:40;8.25;;;1.90;;
70818;SDS011;58439;51.046;13.692;2023-04-03T00:31:07;6.53;;;1.70;;
70818;SDS011;58439;51.046;13.692;2023-04-03T00:33:35;8.45;;;1.55;;
70818;SDS011;58439;51.046;13.692;2023-04-03T00:36:07;8.02;;;2.17;;
70818;SDS011;58439;51.046;13.692;2023-04-03T00:38:48;5.88;;;1.88;;
70818;SDS011;58439;51.046;13.692;2023-04-03T00:41:16;4.68;;;1.70;;
70818;SDS011;58439;51.046;13.692;2023-04-03T00:43:59;6.20;;;1.95;;
70818;SDS011;58439;51.046;13.692;2023-04-03T00:46:35;6.95;;;2.00;;
70818;SDS011;58439;51.046;13.692;2023-04-03T00:49:20;7.28;;;1.70;;
70818;SDS011;58439;51.046;13.692;2023-04-03T00:51:48;5.85;;;1.95;;
70818;SDS011;58439;51.046;13.692;2023-04-03T00:54:15;6.85;;;1.83;;
70818;SDS011;58439;51.046;13.692;2023-04-03T01:00:30;8.40;;;1.83;;
70818;SDS011;58439;51.046;13.692;2023-04-03T01:02:57;4.97;;;1.70;;
70818;SDS011;58439;51.046;13.692;2023-04-03T01:05:26;7.65;;;1.92;;
70818;SDS011;58439;51.046;13.692;2023-04-03T01:07:54;6.13;;;1.77;;
70818;SDS011;58439;51.046;13.692;2023-04-03T01:10:22;6.13;;;1.77;;
70818;SDS011;58439;51.046;13.692;2023-04-03T01:12:52;4.95;;;1.50;;
70818;SDS011;58439;51.046;13.692;2023-04-03T01:15:23;7.05;;;1.95;;
70818;SDS011;58439;51.046;13.692;2023-04-03T01:18:09;6.60;;;1.75;;
70818;SDS011;58439;51.046;13.692;2023-04-03T01:20:43;5.22;;;1.60;;
70818;SDS011;58439;51.046;13.692;2023-04-03T01:23:40;6.97;;;1.90;;
70818;SDS011;58439;51.046;13.692;2023-04-03T01:26:48;7.07;;;2.10;;
70818;SDS011;58439;51.046;13.692;2023-04-03T01:29:16;6.78;;;2.15;;
70818;SDS011;58439;51.046;13.692;2023-04-03T01:32:00;8.50;;;2.17;;
70818;SDS011;58439;51.046;13.692;2023-04-03T01:34:30;9.18;;;1.85;;
70818;SDS011;58439;51.046;13.692;2023-04-03T01:36:58;6.95;;;1.92;;
70818;SDS011;58439;51.046;13.692;2023-04-03T01:39:28;6.20;;;2.20;;
70818;SDS011;58439;51.046;13.692;2023-04-03T01:41:56;5.38;;;1.70;;
70818;SDS011;58439;51.046;13.692;2023-04-03T01:44:34;6.60;;;2.33;;
70818;SDS011;58439;51.046;13.692;2023-04-03T01:47:05;4.75;;;1.77;;
70818;SDS011;58439;51.046;13.692;2023-04-03T01:49:34;9.98;;;1.85;;
70818;SDS011;58439;51.046;13.692;2023-04-03T01:52:04;6.88;;;1.85;;
70818;SDS011;58439;51.046;13.692;2023-04-03T01:54:31;5.22;;;1.55;;
70818;SDS011;58439;51.046;13.692;2023-04-03T01:56:58;7.28;;;1.73;;
70818;SDS011;58439;51.046;13.692;2023-04-03T01:59:29;5.25;;;1.70;;
70818;SDS011;58439;51.046;13.692;2023-04-03T02:01:56;6.35;;;1.60;;
70818;SDS011;58439;51.046;13.692;2023-04-03T02:04:26;5.53;;;1.60;;
70818;SDS011;58439;51.046;13.692;2023-04-03T02:06:53;5.47;;;1.98;;
70818;SDS011;58439;51.046;13.692;2023-04-03T02:09:21;8.57;;;1.90;;
70818;SDS011;58439;51.046;13.692;2023-04-03T02:11:49;6.90;;;2.28;;
70818;SDS011;58439;51.046;13.692;2023-04-03T02:14:19;6.55;;;1.80;;
70818;SDS011;58439;51.046;13.692;2023-04-03T02:17:10;5.80;;;1.52;;
70818;SDS011;58439;51.046;13.692;2023-04-03T02:19:54;10.10;;;2.45;;
70818;SDS011;58439;51.046;13.692;2023-04-03T02:22:32;5.13;;;1.70;;
70818;SDS011;58439;51.046;13.692;2023-04-03T02:25:20;6.53;;;2.83;;
70818;SDS011;58439;51.046;13.692;2023-04-03T02:27:47;7.82;;;1.92;;
70818;SDS011;58439;51.046;13.692;2023-04-03T02:30:15;9.40;;;2.00;;
70818;SDS011;58439;51.046;13.692;2023-04-03T02:32:45;4.57;;;1.75;;
70818;SDS011;58439;51.046;13.692;2023-04-03T02:35:23;4.68;;;1.25;;
70818;SDS011;58439;51.046;13.692;2023-04-03T02:37:51;5.40;;;1.90;;
70818;SDS011;58439;51.046;13.692;2023-04-03T02:40:19;4.65;;;1.50;;
70818;SDS011;58439;51.046;13.692;2023-04-03T02:42:46;5.47;;;1.60;;
70818;SDS011;58439;51.046;13.692;2023-04-03T02:46:17;4.70;;;1.70;;
70818;SDS011;58439;51.046;13.692;2023-04-03T02:48:44;9.82;;;1.92;;
70818;SDS011;58439;51.046;13.692;2023-04-03T02:51:11;7.10;;;2.03;;
70818;SDS011;58439;51.046;13.692;2023-04-03T02:53:39;6.45;;;2.17;;
70818;SDS011;58439;51.046;13.692;2023-04-03T02:56:12;4.80;;;1.80;;
70818;SDS011;58439;51.046;13.692;2023-04-03T02:58:39;5.18;;;1.98;;
70818;SDS011;58439;51.046;13.692;2023-04-03T03:01:08;12.60;;;2.20;;
70818;SDS011;58439;51.046;13.692;2023-04-03T03:03:35;9.43;;;2.22;;
70818;SDS011;58439;51.046;13.692;2023-04-03T03:06:09;6.80;;;2.13;;
70818;SDS011;58439;51.046;13.692;2023-04-03T03:08:40;5.07;;;1.92;;
70818;SDS011;58439;51.046;13.692;2023-04-03T03:11:08;6.50;;;1.95;;
70818;SDS011;58439;51.046;13.692;2023-04-03T03:13:38;4.88;;;1.90;;
70818;SDS011;58439;51.046;13.692;2023-04-03T03:16:33;7.25;;;2.03;;
70818;SDS011;58439;51.046;13.692;2023-04-03T03:19:22;8.07;;;2.47;;
70818;SDS011;58439;51.046;13.692;2023-04-03T03:21:54;13.13;;;2.55;;
70818;SDS011;58439;51.046;13.692;2023-04-03T03:24:52;6.75;;;1.92;;
70818;SDS011;58439;51.046;13.692;2023-04-03T03:27:19;7.00;;;1.98;;
70818;SDS011;58439;51.046;13.692;2023-04-03T03:29:47;6.60;;;1.95;;
70818;SDS011;58439;51.046;13.692;2023-04-03T03:32:14;5.63;;;1.88;;
70818;SDS011;58439;51.046;13.692;2023-04-03T03:34:42;6.22;;;2.30;;
70818;SDS011;58439;51.046;13.692;2023-04-03T03:37:09;10.55;;;1.92;;
70818;SDS011;58439;51.046;13.692;2023-04-03T03:39:36;8.13;;;2.25;;
70818;SDS011;58439;51.046;13.692;2023-04-03T03:42:03;6.95;;;1.73;;
70818;SDS011;58439;51.046;13.692;2023-04-03T03:44:31;19.52;;;2.88;;
70818;SDS011;58439;51.046;13.692;2023-04-03T03:46:58;12.00;;;2.47;;
70818;SDS011;58439;51.046;13.692;2023-04-03T03:49:27;9.73;;;2.30;;
70818;SDS011;58439;51.046;13.692;2023-04-03T03:51:54;6.07;;;2.05;;
70818;SDS011;58439;51.046;13.692;2023-04-03T03:54:22;7.57;;;1.85;;
70818;SDS011;58439;51.046;13.692;2023-04-03T03:56:50;7.70;;;2.10;;
70818;SDS011;58439;51.046;13.692;2023-04-03T03:59:18;6.57;;;1.65;;
70818;SDS011;58439;51.046;13.692;2023-04-03T04:01:45;8.98;;;2.10;;
70818;SDS011;58439;51.046;13.692;2023-04-03T04:04:13;9.35;;;2.40;;
70818;SDS011;58439;51.046;13.692;2023-04-03T04:09:31;8.88;;;2.78;;
70818;SDS011;58439;51.046;13.692;2023-04-03T04:11:58;9.68;;;2.92;;
70818;SDS011;58439;51.046;13.692;2023-04-03T04:24:56;9.45;;;3.00;;
70818;SDS011;58439;51.046;13.692;2023-04-03T04:27:24;8.90;;;2.40;;
70818;SDS011;58439;51.046;13.692;2023-04-03T04:30:02;6.35;;;2.80;;
70818;SDS011;58439;51.046;13.692;2023-04-03T04:32:46;6.15;;;2.35;;
70818;SDS011;58439;51.046;13.692;2023-04-03T04:35:30;7.82;;;2.00;;
70818;SDS011;58439;51.046;13.692;2023-04-03T04:38:07;10.25;;;2.38;;
70818;SDS011;58439;51.046;13.692;2023-04-03T04:44:21;10.32;;;2.20;;
70818;SDS011;58439;51.046;13.692;2023-04-03T04:46:55;12.15;;;2.33;;
70818;SDS011;58439;51.046;13.692;2023-04-03T04:56:14;9.02;;;2.60;;
70818;SDS011;58439;51.046;13.692;2023-04-03T04:58:42;9.95;;;2.50;;
70818;SDS011;58439;51.046;13.692;2023-04-03T05:01:10;9.73;;;2.90;;
70818;SDS011;58439;51.046;13.692;2023-04-03T05:04:01;7.95;;;2.75;;
70818;SDS011;58439;51.046;13.692;2023-04-03T05:06:28;11.15;;;3.85;;
70818;SDS011;58439;51.046;13.692;2023-04-03T05:09:02;8.73;;;2.40;;
70818;SDS011;58439;51.046;13.692;2023-04-03T05:11:31;10.23;;;2.15;;
70818;SDS011;58439;51.046;13.692;2023-04-03T05:13:58;13.02;;;2.25;;
70818;SDS011;58439;51.046;13.692;2023-04-03T05:16:28;11.45;;;2.97;;
70818;SDS011;58439;51.046;13.692;2023-04-03T05:18:58;10.75;;;2.95;;
70818;SDS011;58439;51.046;13.692;2023-04-03T05:21:34;17.23;;;3.03;;
70818;SDS011;58439;51.046;13.692;2023-04-03T05:24:09;8.05;;;2.40;;
70818;SDS011;58439;51.046;13.692;2023-04-03T05:26:39;10.90;;;2.30;;
70818;SDS011;58439;51.046;13.692;2023-04-03T05:29:08;10.68;;;2.80;;
70818;SDS011;58439;51.046;13.692;2023-04-03T05:31:37;8.75;;;2.22;;
70818;SDS011;58439;51.046;13.692;2023-04-03T05:34:06;10.52;;;2.90;;
70818;SDS011;58439;51.046;13.692;2023-04-03T05:36:36;7.32;;;1.45;;
70818;SDS011;58439;51.046;13.692;2023-04-03T05:39:06;11.60;;;3.05;;
70818;SDS011;58439;51.046;13.692;2023-04-03T05:41:37;7.82;;;2.50;;
70818;SDS011;58439;51.046;13.692;2023-04-03T05:44:05;9.73;;;2.97;;
70818;SDS011;58439;51.046;13.692;2023-04-03T05:46:32;10.13;;;2.22;;
70818;SDS011;58439;51.046;13.692;2023-04-03T05:49:03;16.20;;;2.60;;
70818;SDS011;58439;51.046;13.692;2023-04-03T05:51:34;8.77;;;3.00;;
70818;SDS011;58439;51.046;13.692;2023-04-03T05:56:52;7.55;;;2.67;;
70818;SDS011;58439;51.046;13.692;2023-04-03T05:59:20;9.95;;;2.38;;
70818;SDS011;58439;51.046;13.692;2023-04-03T06:01:50;5.80;;;1.88;;
70818;SDS011;58439;51.046;13.692;2023-04-03T06:04:18;7.97;;;2.38;;
70818;SDS011;58439;51.046;13.692;2023-04-03T06:06:48;9.45;;;2.65;;
70818;SDS011;58439;51.046;13.692;2023-04-03T06:09:22;11.20;;;2.22;;
70818;SDS011;58439;51.046;13.692;2023-04-03T06:11:56;9.25;;;2.30;;
70818;SDS011;58439;51.046;13.692;2023-04-03T06:14:27;5.85;;;2.08;;
70818;SDS011;58439;51.046;13.692;2023-04-03T06:16:54;8.57;;;2.50;;
70818;SDS011;58439;51.046;13.692;2023-04-03T06:19:22;5.93;;;2.10;;
70818;SDS011;58439;51.046;13.692;2023-04-03T06:43:53;8.43;;;2.20;;
70818;SDS011;58439;51.046;13.692;2023-04-03T06:46:24;11.00;;;2.58;;
70818;SDS011;58439;51.046;13.692;2023-04-03T06:48:54;11.82;;;2.47;;
70818;SDS011;58439;51.046;13.692;2023-04-03T06:51:22;10.30;;;2.00;;
70818;SDS011;58439;51.046;13.692;2023-04-03T06:53:53;10.68;;;2.45;;
70818;SDS011;58439;51.046;13.692;2023-04-03T06:56:23;9.98;;;2.20;;
70818;SDS011;58439;51.046;13.692;2023-04-03T06:58:53;11.95;;;2.08;;
70818;SDS011;58439;51.046;13.692;2023-04-03T07:01:24;9.05;;;1.98;;
70818;SDS011;58439;51.046;13.692;2023-04-03T07:12:40;7.40;;;2.47;;
70818;SDS011;58439;51.046;13.692;2023-04-03T07:15:09;9.65;;;2.80;;
70818;SDS011;58439;51.046;13.692;2023-04-03T07:31:41;9.77;;;2.50;;
70818;SDS011;58439;51.046;13.692;2023-04-03T07:34:15;7.85;;;2.20;;
70818;SDS011;58439;51.046;13.692;2023-04-03T07:39:59;9.60;;;2.72;;
70818;SDS011;58439;51.046;13.692;2023-04-03T07:51:52;7.93;;;2.55;;
70818;SDS011;58439;51.046;13.692;2023-04-03T07:54:48;4.88;;;1.90;;
70818;SDS011;58439;51.046;13.692;2023-04-03T07:57:24;8.23;;;2.20;;
70818;SDS011;58439;51.046;13.692;2023-04-03T07:59:52;13.15;;;2.28;;
70818;SDS011;58439;51.046;13.692;2023-04-03T08:02:20;11.35;;;2.75;;
70818;SDS011;58439;51.046;13.692;2023-04-03T08:04:48;10.20;;;2.40;;
70818;SDS011;58439;51.046;13.692;2023-04-03T08:07:19;9.00;;;2.50;;
70818;SDS011;58439;51.046;13.692;2023-04-03T08:09:48;10.23;;;2.38;;
70818;SDS011;58439;51.046;13.692;2023-04-03T08:15:17;9.05;;;2.60;;
70818;SDS011;58439;51.046;13.692;2023-04-03T08:17:45;9.20;;;2.20;;
70818;SDS011;58439;51.046;13.692;2023-04-03T08:20:29;4.88;;;2.10;;
70818;SDS011;58439;51.046;13.692;2023-04-03T08:23:00;14.13;;;2.28;;
70818;SDS011;58439;51.046;13.692;2023-04-03T08:25:43;10.95;;;2.20;;
70818;SDS011;58439;51.046;13.692;2023-04-03T08:28:27;7.32;;;2.08;;
70818;SDS011;58439;51.046;13.692;2023-04-03T08:31:12;10.88;;;2.15;;
70818;SDS011;58439;51.046;13.692;2023-04-03T08:44:46;10.85;;;2.40;;
70818;SDS011;58439;51.046;13.692;2023-04-03T08:47:40;16.17;;;2.38;;
70818;SDS011;58439;51.046;13.692;2023-04-03T08:50:36;7.57;;;2.00;;
70818;SDS011;58439;51.046;13.692;2023-04-03T08:53:17;13.07;;;2.42;;
70818;SDS011;58439;51.046;13.692;2023-04-03T08:55:51;11.60;;;2.13;;
70818;SDS011;58439;51.046;13.692;2023-04-03T08:58:22;7.28;;;1.63;;
70818;SDS011;58439;51.046;13.692;2023-04-03T09:01:55;7.40;;;2.08;;
70818;SDS011;58439;51.046;13.692;2023-04-03T09:04:16;8.85;;;2.20;;
70818;SDS011;58439;51.046;13.692;2023-04-03T09:06:49;6.32;;;1.77;;
70818;SDS011;58439;51.046;13.692;2023-04-03T09:09:42;11.45;;;2.00;;
70818;SDS011;58439;51.046;13.692;2023-04-03T09:12:19;8.15;;;2.00;;
70818;SDS011;58439;51.046;13.692;2023-04-03T09:18:57;5.47;;;1.90;;
70818;SDS011;58439;51.046;13.692;2023-04-03T09:22:11;10.45;;;1.92;;
70818;SDS011;58439;51.046;13.692;2023-04-03T09:24:45;12.40;;;2.50;;
70818;SDS011;58439;51.046;13.692;2023-04-03T09:27:23;21.23;;;3.20;;
70818;SDS011;58439;51.046;13.692;2023-04-03T09:29:52;9.88;;;2.25;;
70818;SDS011;58439;51.046;13.692;2023-04-03T09:32:27;8.10;;;1.92;;
70818;SDS011;58439;51.046;13.692;2023-04-03T09:35:00;5.63;;;2.00;;
70818;SDS011;58439;51.046;13.692;2023-04-03T09:40:36;5.38;;;1.38;;
70818;SDS011;58439;51.046;13.692;2023-04-03T09:46:17;4.30;;;1.30;;
70818;SDS011;58439;51.046;13.692;2023-04-03T09:56:52;6.40;;;1.50;;
70818;SDS011;58439;51.046;13.692;2023-04-03T09:59:22;6.18;;;1.38;;
70818;SDS011;58439;51.046;13.692;2023-04-03T10:02:02;6.20;;;1.67;;
70818;SDS011;58439;51.046;13.692;2023-04-03T10:04:49;9.20;;;1.63;;
70818;SDS011;58439;51.046;13.692;2023-04-03T10:07:36;4.20;;;1.00;;
70818;SDS011;58439;51.046;13.692;2023-04-03T10:10:25;4.18;;;1.67;;
70818;SDS011;58439;51.046;13.692;2023-04-03T10:13:19;3.38;;;1.73;;
70818;SDS011;58439;51.046;13.692;2023-04-03T10:16:38;2.90;;;1.10;;
70818;SDS011;58439;51.046;13.692;2023-04-03T10:19:28;4.43;;;1.40;;
70818;SDS011;58439;51.046;13.692;2023-04-03T10:22:18;6.45;;;1.60;;
70818;SDS011;58439;51.046;13.692;2023-04-03T10:25:42;3.70;;;1.10;;
70818;SDS011;58439;51.046;13.692;2023-04-03T10:31:24;9.75;;;1.40;;
70818;SDS011;58439;51.046;13.692;2023-04-03T10:34:17;4.90;;;1.30;;
70818;SDS011;58439;51.046;13.692;2023-04-03T10:37:22;3.90;;;1.35;;
70818;SDS011;58439;51.046;13.692;2023-04-03T10:40:01;6.72;;;1.25;;
70818;SDS011;58439;51.046;13.692;2023-04-03T10:43:10;7.25;;;2.30;;
70818;SDS011;58439;51.046;13.692;2023-04-03T10:52:00;4.93;;;1.13;;
70818;SDS011;58439;51.046;13.692;2023-04-03T10:54:43;7.47;;;1.17;;
70818;SDS011;58439;51.046;13.692;2023-04-03T10:57:25;3.90;;;1.15;;
70818;SDS011;58439;51.046;13.692;2023-04-03T10:59:53;5.50;;;1.88;;
70818;SDS011;58439;51.046;13.692;2023-04-03T11:02:36;5.75;;;1.40;;
70818;SDS011;58439;51.046;13.692;2023-04-03T11:11:00;1.23;;;0.68;;
70818;SDS011;58439;51.046;13.692;2023-04-03T11:16:34;4.88;;;0.93;;
70818;SDS011;58439;51.046;13.692;2023-04-03T11:19:28;4.53;;;1.10;;
70818;SDS011;58439;51.046;13.692;2023-04-03T11:22:28;4.82;;;1.08;;
70818;SDS011;58439;51.046;13.692;2023-04-03T11:27:54;5.05;;;1.50;;
70818;SDS011;58439;51.046;13.692;2023-04-03T11:30:49;1.27;;;0.75;;
70818;SDS011;58439;51.046;13.692;2023-04-03T11:36:58;3.03;;;1.00;;
70818;SDS011;58439;51.046;13.692;2023-04-03T11:39:29;4.63;;;1.23;;
70818;SDS011;58439;51.046;13.692;2023-04-03T11:42:12;3.47;;;1.17;;
70818;SDS011;58439;51.046;13.692;2023-04-03T11:47:58;3.20;;;0.93;;
70818;SDS011;58439;51.046;13.692;2023-04-03T11:50:49;3.72;;;1.50;;
70818;SDS011;58439;51.046;13.692;2023-04-03T12:01:47;7.00;;;1.45;;
70818;SDS011;58439;51.046;13.692;2023-04-03T12:04:24;3.63;;;1.20;;
70818;SDS011;58439;51.046;13.692;2023-04-03T12:06:59;4.78;;;0.93;;
70818;SDS011;58439;51.046;13.692;2023-04-03T12:12:28;8.38;;;1.33;;
70818;SDS011;58439;51.046;13.692;2023-04-03T12:41:08;4.22;;;1.25;;
70818;SDS011;58439;51.046;13.692;2023-04-03T12:47:31;5.00;;;1.42;;
70818;SDS011;58439;51.046;13.692;2023-04-03T12:50:16;3.10;;;0.60;;
70818;SDS011;58439;51.046;13.692;2023-04-03T12:52:54;4.30;;;1.35;;
70818;SDS011;58439;51.046;13.692;2023-04-03T12:55:26;4.50;;;1.23;;
70818;SDS011;58439;51.046;13.692;2023-04-03T12:58:12;3.17;;;1.13;;
70818;SDS011;58439;51.046;13.692;2023-04-03T13:01:00;4.88;;;1.08;;
70818;SDS011;58439;51.046;13.692;2023-04-03T13:03:41;4.38;;;1.50;;
70818;SDS011;58439;51.046;13.692;2023-04-03T13:06:17;5.93;;;1.98;;
70818;SDS011;58439;51.046;13.692;2023-04-03T13:08:58;4.45;;;1.40;;
70818;SDS011;58439;51.046;13.692;2023-04-03T13:11:30;3.50;;;1.25;;
70818;SDS011;58439;51.046;13.692;2023-04-03T13:14:12;7.75;;;1.38;;
70818;SDS011;58439;51.046;13.692;2023-04-03T13:16:57;3.53;;;1.23;;
70818;SDS011;58439;51.046;13.692;2023-04-03T13:19:37;6.45;;;1.40;;
70818;SDS011;58439;51.046;13.692;2023-04-03T13:25:16;5.47;;;1.20;;
70818;SDS011;58439;51.046;13.692;2023-04-03T13:30:28;5.10;;;1.45;;
70818;SDS011;58439;51.046;13.692;2023-04-03T13:33:00;3.90;;;1.40;;
70818;SDS011;58439;51.046;13.692;2023-04-03T13:35:45;4.07;;;1.10;;
70818;SDS011;58439;51.046;13.692;2023-04-03T13:40:54;3.58;;;1.30;;
70818;SDS011;58439;51.046;13.692;2023-04-03T13:43:31;8.80;;;1.50;;
70818;SDS011;58439;51.046;13.692;2023-04-03T13:46:21;2.75;;;0.93;;
70818;SDS011;58439;51.046;13.692;2023-04-03T13:48:54;6.45;;;1.73;;
70818;SDS011;58439;51.046;13.692;2023-04-03T13:51:45;3.70;;;1.23;;
70818;SDS011;58439;51.046;13.692;2023-04-03T13:57:17;3.92;;;1.30;;
70818;SDS011;58439;51.046;13.692;2023-04-03T14:04:10;2.97;;;1.13;;
70818;SDS011;58439;51.046;13.692;2023-04-03T14:06:49;5.70;;;1.60;;
70818;SDS011;58439;51.046;13.692;2023-04-03T14:09:21;4.05;;;1.10;;
70818;SDS011;58439;51.046;13.692;2023-04-03T14:12:38;6.80;;;1.85;;
70818;SDS011;58439;51.046;13.692;2023-04-03T14:17:50;1.85;;;0.80;;
70818;SDS011;58439;51.046;13.692;2023-04-03T14:20:20;8.40;;;1.50;;
70818;SDS011;58439;51.046;13.692;2023-04-03T14:22:52;2.67;;;1.10;;
70818;SDS011;58439;51.046;13.692;2023-04-03T14:25:24;1.33;;;0.65;;
70818;SDS011;58439;51.046;13.692;2023-04-03T14:27:54;3.72;;;0.90;;
70818;SDS011;58439;51.046;13.692;2023-04-03T14:35:11;2.97;;;1.58;;
70818;SDS011;58439;51.046;13.692;2023-04-03T14:37:53;1.90;;;0.82;;
70818;SDS011;58439;51.046;13.692;2023-04-03T14:40:23;4.65;;;1.23;;
70818;SDS011;58439;51.046;13.692;2023-04-03T14:42:54;5.63;;;1.48;;
70818;SDS011;58439;51.046;13.692;2023-04-03T14:45:22;2.60;;;1.00;;
70818;SDS011;58439;51.046;13.692;2023-04-03T14:47:52;4.15;;;1.30;;
70818;SDS011;58439;51.046;13.692;2023-04-03T14:50:27;3.97;;;1.25;;
70818;SDS011;58439;51.046;13.692;2023-04-03T14:52:58;6.88;;;1.30;;
70818;SDS011;58439;51.046;13.692;2023-04-03T14:55:27;3.83;;;1.20;;
70818;SDS011;58439;51.046;13.692;2023-04-03T14:57:55;3.53;;;1.55;;
70818;SDS011;58439;51.046;13.692;2023-04-03T15:00:23;5.63;;;1.23;;
70818;SDS011;58439;51.046;13.692;2023-04-03T15:02:50;3.38;;;1.42;;
70818;SDS011;58439;51.046;13.692;2023-04-03T15:05:18;2.53;;;1.15;;
70818;SDS011;58439;51.046;13.692;2023-04-03T15:07:55;3.38;;;1.45;;
70818;SDS011;58439;51.046;13.692;2023-04-03T15:10:28;4.00;;;1.35;;
70818;SDS011;58439;51.046;13.692;2023-04-03T15:12:57;2.97;;;1.17;;
70818;SDS011;58439;51.046;13.692;2023-04-03T15:15:27;3.97;;;1.98;;
70818;SDS011;58439;51.046;13.692;2023-04-03T15:18:03;4.15;;;1.75;;
70818;SDS011;58439;51.046;13.692;2023-04-03T15:20:32;5.40;;;1.65;;
70818;SDS011;58439;51.046;13.692;2023-04-03T15:23:00;5.75;;;1.40;;
70818;SDS011;58439;51.046;13.692;2023-04-03T15:25:37;4.00;;;1.27;;
70818;SDS011;58439;51.046;13.692;2023-04-03T15:28:08;3.75;;;1.20;;
70818;SDS011;58439;51.046;13.692;2023-04-03T15:31:07;2.85;;;1.40;;
70818;SDS011;58439;51.046;13.692;2023-04-03T15:33:50;6.00;;;1.45;;
70818;SDS011;58439;51.046;13.692;2023-04-03T15:36:18;1.77;;;0.77;;
70818;SDS011;58439;51.046;13.692;2023-04-03T15:38:59;2.42;;;0.80;;
70818;SDS011;58439;51.046;13.692;2023-04-03T15:41:27;4.00;;;1.38;;
70818;SDS011;58439;51.046;13.692;2023-04-03T15:43:55;5.50;;;1.60;;
70818;SDS011;58439;51.046;13.692;2023-04-03T15:46:22;3.17;;;1.20;;
70818;SDS011;58439;51.046;13.692;2023-04-03T15:48:53;3.30;;;1.63;;
70818;SDS011;58439;51.046;13.692;2023-04-03T15:51:21;4.35;;;1.40;;
70818;SDS011;58439;51.046;13.692;2023-04-03T15:53:51;4.25;;;1.25;;
70818;SDS011;58439;51.046;13.692;2023-04-03T15:56:18;3.55;;;1.00;;
70818;SDS011;58439;51.046;13.692;2023-04-03T15:58:45;10.30;;;1.58;;
70818;SDS011;58439;51.046;13.692;2023-04-03T16:01:13;5.10;;;1.23;;
70818;SDS011;58439;51.046;13.692;2023-04-03T16:03:40;5.72;;;1.40;;
70818;SDS011;58439;51.046;13.692;2023-04-03T16:06:13;5.28;;;1.60;;
70818;SDS011;58439;51.046;13.692;2023-04-03T16:08:41;2.90;;;1.17;;
70818;SDS011;58439;51.046;13.692;2023-04-03T16:11:09;4.30;;;0.98;;
70818;SDS011;58439;51.046;13.692;2023-04-03T16:13:36;3.08;;;1.40;;
70818;SDS011;58439;51.046;13.692;2023-04-03T16:16:04;3.42;;;1.25;;
70818;SDS011;58439;51.046;13.692;2023-04-03T16:18:32;3.42;;;1.05;;
70818;SDS011;58439;51.046;13.692;2023-04-03T16:21:03;3.30;;;1.33;;
70818;SDS011;58439;51.046;13.692;2023-04-03T16:23:33;2.30;;;0.73;;
70818;SDS011;58439;51.046;13.692;2023-04-03T16:29:57;2.35;;;0.93;;
70818;SDS011;58439;51.046;13.692;2023-04-03T16:32:26;7.63;;;1.60;;
70818;SDS011;58439;51.046;13.692;2023-04-03T16:34:57;4.45;;;1.33;;
70818;SDS011;58439;51.046;13.692;2023-04-03T16:37:30;5.38;;;1.45;;
70818;SDS011;58439;51.046;13.692;2023-04-03T16:39:58;5.38;;;2.22;;
70818;SDS011;58439;51.046;13.692;2023-04-03T16:42:25;2.38;;;1.23;;
70818;SDS011;58439;51.046;13.692;2023-04-03T16:44:53;5.20;;;1.30;;
70818;SDS011;58439;51.046;13.692;2023-04-03T16:47:20;3.75;;;1.10;;
70818;SDS011;58439;51.046;13.692;2023-04-03T16:49:47;3.45;;;1.05;;
70818;SDS011;58439;51.046;13.692;2023-04-03T16:52:14;6.45;;;1.40;;
70818;SDS011;58439;51.046;13.692;2023-04-03T16:54:43;5.07;;;1.20;;
70818;SDS011;58439;51.046;13.692;2023-04-03T16:57:10;5.22;;;1.35;;
70818;SDS011;58439;51.046;13.692;2023-04-03T16:59:37;5.75;;;1.20;;
70818;SDS011;58439;51.046;13.692;2023-04-03T17:02:08;1.83;;;1.00;;
70818;SDS011;58439;51.046;13.692;2023-04-03T17:04:35;4.53;;;1.10;;
70818;SDS011;58439;51.046;13.692;2023-04-03T17:07:02;5.05;;;1.48;;
70818;SDS011;58439;51.046;13.692;2023-04-03T17:09:32;3.85;;;1.60;;
70818;SDS011;58439;51.046;13.692;2023-04-03T17:12:00;4.82;;;1.58;;
70818;SDS011;58439;51.046;13.692;2023-04-03T17:14:32;5.30;;;1.33;;
70818;SDS011;58439;51.046;13.692;2023-04-03T17:17:00;2.65;;;1.15;;
70818;SDS011;58439;51.046;13.692;2023-04-03T17:19:29;4.45;;;1.60;;
70818;SDS011;58439;51.046;13.692;2023-04-03T17:21:57;5.88;;;1.60;;
70818;SDS011;58439;51.046;13.692;2023-04-03T17:24:24;4.85;;;1.40;;
70818;SDS011;58439;51.046;13.692;2023-04-03T17:26:53;4.60;;;1.35;;
70818;SDS011;58439;51.046;13.692;2023-04-03T17:29:21;3.08;;;1.10;;
70818;SDS011;58439;51.046;13.692;2023-04-03T17:31:48;8.40;;;1.40;;
70818;SDS011;58439;51.046;13.692;2023-04-03T17:34:16;2.75;;;1.10;;
70818;SDS011;58439;51.046;13.692;2023-04-03T17:36:43;5.15;;;1.85;;
70818;SDS011;58439;51.046;13.692;2023-04-03T17:39:10;4.47;;;1.15;;
70818;SDS011;58439;51.046;13.692;2023-04-03T17:41:38;7.40;;;1.73;;
70818;SDS011;58439;51.046;13.692;2023-04-03T17:44:11;3.60;;;1.60;;
70818;SDS011;58439;51.046;13.692;2023-04-03T17:46:39;9.45;;;1.90;;
70818;SDS011;58439;51.046;13.692;2023-04-03T17:49:07;4.10;;;1.35;;
70818;SDS011;58439;51.046;13.692;2023-04-03T17:51:42;4.38;;;1.58;;
70818;SDS011;58439;51.046;13.692;2023-04-03T17:54:12;4.10;;;1.60;;
70818;SDS011;58439;51.046;13.692;2023-04-03T17:56:40;6.45;;;1.67;;
70818;SDS011;58439;51.046;13.692;2023-04-03T17:59:13;4.28;;;1.70;;
70818;SDS011;58439;51.046;13.692;2023-04-03T18:01:43;8.65;;;2.22;;
70818;SDS011;58439;51.046;13.692;2023-04-03T18:04:14;8.93;;;2.08;;
70818;SDS011;58439;51.046;13.692;2023-04-03T18:06:43;9.30;;;2.70;;
70818;SDS011;58439;51.046;13.692;2023-04-03T18:09:23;8.18;;;2.70;;
70818;SDS011;58439;51.046;13.692;2023-04-03T18:11:56;8.68;;;3.42;;
70818;SDS011;58439;51.046;13.692;2023-04-03T18:14:27;8.32;;;2.90;;
70818;SDS011;58439;51.046;13.692;2023-04-03T18:16:55;7.75;;;2.53;;
70818;SDS011;58439;51.046;13.692;2023-04-03T18:19:24;8.02;;;2.60;;
70818;SDS011;58439;51.046;13.692;2023-04-03T18:21:56;5.18;;;2.35;;
70818;SDS011;58439;51.046;13.692;2023-04-03T18:24:30;6.70;;;2.03;;
70818;SDS011;58439;51.046;13.692;2023-04-03T18:27:03;5.30;;;1.90;;
70818;SDS011;58439;51.046;13.692;2023-04-03T18:29:41;10.40;;;2.10;;
70818;SDS011;58439;51.046;13.692;2023-04-03T18:32:15;9.43;;;2.53;;
70818;SDS011;58439;51.046;13.692;2023-04-03T18:34:46;5.83;;;2.13;;
70818;SDS011;58439;51.046;13.692;2023-04-03T18:37:14;9.00;;;2.70;;
70818;SDS011;58439;51.046;13.692;2023-04-03T18:39:42;7.55;;;2.38;;
70818;SDS011;58439;51.046;13.692;2023-04-03T18:42:13;10.18;;;2.70;;
70818;SDS011;58439;51.046;13.692;2023-04-03T18:44:45;8.05;;;2.72;;
70818;SDS011;58439;51.046;13.692;2023-04-03T18:52:07;9.57;;;2.88;;
70818;SDS011;58439;51.046;13.692;2023-04-03T18:54:44;8.55;;;2.90;;